sensor_id;sensor_type;location;lat;lon;timestamp;P1;durP1;ratioP1;P2;durP2;ratioP2
77876;SDS011;67251;50.844;7.978;2023-08-06T00:01:25;4.53;;;2.17;;
77876;SDS011;67251;50.844;7.978;2023-08-06T00:03:50;5.25;;;3.10;;
77876;SDS011;67251;50.844;7.978;2023-08-06T00:06:16;5.10;;;2.63;;
77876;SDS011;67251;50.844;7.978;2023-08-06T00:08:41;5.45;;;2.75;;
77876;SDS011;67251;50.844;7.978;2023-08-06T00:11:07;5.40;;;2.70;;
77876;SDS011;67251;50.844;7.978;2023-08-06T00:13:32;5.07;;;2.30;;
77876;SDS011;67251;50.844;7.978;2023-08-06T00:16:10;4.85;;;2.28;;
77876;SDS011;67251;50.844;7.978;2023-08-06T00:18:36;5.25;;;2.50;;
77876;SDS011;67251;50.844;7.978;2023-08-06T00:21:02;6.32;;;2.30;;
77876;SDS011;67251;50.844;7.978;2023-08-06T00:23:28;6.50;;;2.53;;
77876;SDS011;67251;50.844;7.978;2023-08-06T00:25:53;7.53;;;2.33;;
77876;SDS011;67251;50.844;7.978;2023-08-06T00:28:18;5.40;;;2.55;;
77876;SDS011;67251;50.844;7.978;2023-08-06T00:30:44;6.50;;;2.67;;
77876;SDS011;67251;50.844;7.978;2023-08-06T00:33:09;5.65;;;2.35;;
77876;SDS011;67251;50.844;7.978;2023-08-06T00:35:34;5.72;;;2.10;;
77876;SDS011;67251;50.844;7.978;2023-08-06T00:38:00;5.28;;;2.50;;
77876;SDS011;67251;50.844;7.978;2023-08-06T00:40:25;5.28;;;2.55;;
77876;SDS011;67251;50.844;7.978;2023-08-06T00:42:53;5.30;;;2.40;;
77876;SDS011;67251;50.844;7.978;2023-08-06T00:45:18;6.50;;;2.45;;
77876;SDS011;67251;50.844;7.978;2023-08-06T00:47:44;4.32;;;2.30;;
77876;SDS011;67251;50.844;7.978;2023-08-06T00:50:10;5.88;;;2.83;;
77876;SDS011;67251;50.844;7.978;2023-08-06T00:52:36;4.82;;;2.45;;
77876;SDS011;67251;50.844;7.978;2023-08-06T00:55:02;5.15;;;2.60;;
77876;SDS011;67251;50.844;7.978;2023-08-06T00:57:28;5.60;;;2.60;;
77876;SDS011;67251;50.844;7.978;2023-08-06T00:59:54;6.68;;;2.53;;
77876;SDS011;67251;50.844;7.978;2023-08-06T01:02:20;6.47;;;2.50;;
77876;SDS011;67251;50.844;7.978;2023-08-06T01:04:45;5.35;;;2.60;;
77876;SDS011;67251;50.844;7.978;2023-08-06T01:10:10;4.90;;;2.58;;
77876;SDS011;67251;50.844;7.978;2023-08-06T01:15:41;6.10;;;2.40;;
77876;SDS011;67251;50.844;7.978;2023-08-06T01:18:10;4.75;;;2.22;;
77876;SDS011;67251;50.844;7.978;2023-08-06T01:20:35;6.35;;;2.30;;
77876;SDS011;67251;50.844;7.978;2023-08-06T01:23:01;5.50;;;2.60;;
77876;SDS011;67251;50.844;7.978;2023-08-06T01:25:29;5.72;;;2.75;;
77876;SDS011;67251;50.844;7.978;2023-08-06T01:27:57;5.85;;;2.47;;
77876;SDS011;67251;50.844;7.978;2023-08-06T01:30:30;4.53;;;2.28;;
77876;SDS011;67251;50.844;7.978;2023-08-06T01:33:02;5.28;;;2.42;;
77876;SDS011;67251;50.844;7.978;2023-08-06T01:35:29;5.53;;;2.67;;
77876;SDS011;67251;50.844;7.978;2023-08-06T01:37:55;4.80;;;2.42;;
77876;SDS011;67251;50.844;7.978;2023-08-06T01:40:21;5.75;;;2.70;;
77876;SDS011;67251;50.844;7.978;2023-08-06T01:42:47;5.57;;;2.42;;
77876;SDS011;67251;50.844;7.978;2023-08-06T01:45:12;5.28;;;2.50;;
77876;SDS011;67251;50.844;7.978;2023-08-06T01:51:06;5.70;;;2.60;;
77876;SDS011;67251;50.844;7.978;2023-08-06T01:53:32;6.75;;;2.58;;
77876;SDS011;67251;50.844;7.978;2023-08-06T01:55:58;4.40;;;2.28;;
77876;SDS011;67251;50.844;7.978;2023-08-06T01:58:23;5.07;;;2.38;;
77876;SDS011;67251;50.844;7.978;2023-08-06T02:00:49;4.50;;;2.30;;
77876;SDS011;67251;50.844;7.978;2023-08-06T02:03:14;7.18;;;2.63;;
77876;SDS011;67251;50.844;7.978;2023-08-06T02:05:40;5.20;;;2.45;;
77876;SDS011;67251;50.844;7.978;2023-08-06T02:08:05;5.88;;;2.50;;
77876;SDS011;67251;50.844;7.978;2023-08-06T02:10:31;5.18;;;2.78;;
77876;SDS011;67251;50.844;7.978;2023-08-06T02:12:56;5.60;;;2.58;;
77876;SDS011;67251;50.844;7.978;2023-08-06T02:15:22;5.72;;;2.47;;
77876;SDS011;67251;50.844;7.978;2023-08-06T02:17:47;5.35;;;2.35;;
77876;SDS011;67251;50.844;7.978;2023-08-06T02:20:12;5.63;;;2.60;;
77876;SDS011;67251;50.844;7.978;2023-08-06T02:22:38;5.15;;;2.28;;
77876;SDS011;67251;50.844;7.978;2023-08-06T02:25:03;6.47;;;2.67;;
77876;SDS011;67251;50.844;7.978;2023-08-06T02:27:29;6.07;;;2.70;;
77876;SDS011;67251;50.844;7.978;2023-08-06T02:29:54;6.75;;;2.60;;
77876;SDS011;67251;50.844;7.978;2023-08-06T02:32:19;4.70;;;2.30;;
77876;SDS011;67251;50.844;7.978;2023-08-06T02:34:45;5.43;;;2.80;;
77876;SDS011;67251;50.844;7.978;2023-08-06T02:37:10;6.13;;;2.95;;
77876;SDS011;67251;50.844;7.978;2023-08-06T02:39:35;5.78;;;2.58;;
77876;SDS011;67251;50.844;7.978;2023-08-06T02:42:04;6.60;;;2.88;;
77876;SDS011;67251;50.844;7.978;2023-08-06T02:44:30;5.35;;;2.50;;
77876;SDS011;67251;50.844;7.978;2023-08-06T02:46:56;7.85;;;2.97;;
77876;SDS011;67251;50.844;7.978;2023-08-06T02:49:21;6.55;;;2.45;;
77876;SDS011;67251;50.844;7.978;2023-08-06T02:51:46;5.10;;;2.13;;
77876;SDS011;67251;50.844;7.978;2023-08-06T02:54:12;5.57;;;2.35;;
77876;SDS011;67251;50.844;7.978;2023-08-06T02:59:59;6.03;;;2.85;;
77876;SDS011;67251;50.844;7.978;2023-08-06T03:02:24;5.32;;;2.58;;
77876;SDS011;67251;50.844;7.978;2023-08-06T03:04:50;5.47;;;2.30;;
77876;SDS011;67251;50.844;7.978;2023-08-06T03:07:16;6.97;;;2.63;;
77876;SDS011;67251;50.844;7.978;2023-08-06T03:09:41;5.57;;;2.72;;
77876;SDS011;67251;50.844;7.978;2023-08-06T03:12:06;7.82;;;3.25;;
77876;SDS011;67251;50.844;7.978;2023-08-06T03:14:32;7.63;;;2.63;;
77876;SDS011;67251;50.844;7.978;2023-08-06T03:16:57;7.30;;;2.42;;
77876;SDS011;67251;50.844;7.978;2023-08-06T03:19:23;5.18;;;2.28;;
77876;SDS011;67251;50.844;7.978;2023-08-06T03:21:48;7.43;;;2.83;;
77876;SDS011;67251;50.844;7.978;2023-08-06T03:24:14;6.38;;;2.88;;
77876;SDS011;67251;50.844;7.978;2023-08-06T03:26:39;5.32;;;2.47;;
77876;SDS011;67251;50.844;7.978;2023-08-06T03:29:04;7.18;;;3.03;;
77876;SDS011;67251;50.844;7.978;2023-08-06T03:31:30;6.70;;;2.88;;
77876;SDS011;67251;50.844;7.978;2023-08-06T03:33:55;6.88;;;2.70;;
77876;SDS011;67251;50.844;7.978;2023-08-06T03:36:20;5.53;;;2.30;;
77876;SDS011;67251;50.844;7.978;2023-08-06T03:38:46;6.57;;;2.63;;
77876;SDS011;67251;50.844;7.978;2023-08-06T03:41:12;9.93;;;2.67;;
77876;SDS011;67251;50.844;7.978;2023-08-06T03:43:37;5.68;;;2.67;;
77876;SDS011;67251;50.844;7.978;2023-08-06T03:46:02;5.20;;;2.25;;
77876;SDS011;67251;50.844;7.978;2023-08-06T03:48:28;6.32;;;2.20;;
77876;SDS011;67251;50.844;7.978;2023-08-06T03:50:53;5.47;;;2.47;;
77876;SDS011;67251;50.844;7.978;2023-08-06T03:53:18;4.93;;;2.33;;
77876;SDS011;67251;50.844;7.978;2023-08-06T03:55:44;6.38;;;2.38;;
77876;SDS011;67251;50.844;7.978;2023-08-06T03:58:09;6.32;;;2.47;;
77876;SDS011;67251;50.844;7.978;2023-08-06T04:00:34;6.45;;;2.30;;
77876;SDS011;67251;50.844;7.978;2023-08-06T04:03:00;6.75;;;2.53;;
77876;SDS011;67251;50.844;7.978;2023-08-06T04:05:25;5.60;;;2.50;;
77876;SDS011;67251;50.844;7.978;2023-08-06T04:07:50;5.18;;;2.47;;
77876;SDS011;67251;50.844;7.978;2023-08-06T04:10:16;5.63;;;2.53;;
77876;SDS011;67251;50.844;7.978;2023-08-06T04:12:41;6.30;;;2.30;;
77876;SDS011;67251;50.844;7.978;2023-08-06T04:15:07;5.25;;;2.30;;
77876;SDS011;67251;50.844;7.978;2023-08-06T04:17:32;4.68;;;1.83;;
77876;SDS011;67251;50.844;7.978;2023-08-06T04:19:58;5.20;;;2.17;;
77876;SDS011;67251;50.844;7.978;2023-08-06T04:22:24;6.03;;;2.28;;
77876;SDS011;67251;50.844;7.978;2023-08-06T04:24:49;6.72;;;2.70;;
77876;SDS011;67251;50.844;7.978;2023-08-06T04:27:15;5.93;;;2.60;;
77876;SDS011;67251;50.844;7.978;2023-08-06T04:29:41;7.68;;;2.60;;
77876;SDS011;67251;50.844;7.978;2023-08-06T04:32:08;7.85;;;3.38;;
77876;SDS011;67251;50.844;7.978;2023-08-06T04:34:35;5.53;;;2.60;;
77876;SDS011;67251;50.844;7.978;2023-08-06T04:37:01;5.97;;;2.28;;
77876;SDS011;67251;50.844;7.978;2023-08-06T04:39:27;6.43;;;2.42;;
77876;SDS011;67251;50.844;7.978;2023-08-06T04:41:52;6.65;;;2.78;;
77876;SDS011;67251;50.844;7.978;2023-08-06T04:44:18;6.80;;;2.55;;
77876;SDS011;67251;50.844;7.978;2023-08-06T04:46:43;7.15;;;2.65;;
77876;SDS011;67251;50.844;7.978;2023-08-06T04:49:09;6.10;;;2.42;;
77876;SDS011;67251;50.844;7.978;2023-08-06T04:51:34;5.75;;;2.38;;
77876;SDS011;67251;50.844;7.978;2023-08-06T04:54:00;5.72;;;2.40;;
77876;SDS011;67251;50.844;7.978;2023-08-06T04:56:25;5.93;;;2.60;;
77876;SDS011;67251;50.844;7.978;2023-08-06T04:58:51;7.07;;;2.45;;
77876;SDS011;67251;50.844;7.978;2023-08-06T05:01:16;6.82;;;2.70;;
77876;SDS011;67251;50.844;7.978;2023-08-06T05:03:42;7.20;;;2.92;;
77876;SDS011;67251;50.844;7.978;2023-08-06T05:06:07;5.30;;;2.17;;
77876;SDS011;67251;50.844;7.978;2023-08-06T05:08:33;4.50;;;2.20;;
77876;SDS011;67251;50.844;7.978;2023-08-06T05:10:58;6.50;;;2.20;;
77876;SDS011;67251;50.844;7.978;2023-08-06T05:13:24;5.68;;;2.40;;
77876;SDS011;67251;50.844;7.978;2023-08-06T05:15:50;5.70;;;1.83;;
77876;SDS011;67251;50.844;7.978;2023-08-06T05:18:15;5.60;;;2.22;;
77876;SDS011;67251;50.844;7.978;2023-08-06T05:20:41;5.75;;;2.20;;
77876;SDS011;67251;50.844;7.978;2023-08-06T05:23:07;6.03;;;2.00;;
77876;SDS011;67251;50.844;7.978;2023-08-06T05:25:36;4.70;;;1.95;;
77876;SDS011;67251;50.844;7.978;2023-08-06T05:28:02;7.60;;;2.00;;
77876;SDS011;67251;50.844;7.978;2023-08-06T05:30:27;4.35;;;1.90;;
77876;SDS011;67251;50.844;7.978;2023-08-06T05:32:53;5.85;;;2.17;;
77876;SDS011;67251;50.844;7.978;2023-08-06T05:35:18;6.82;;;2.05;;
77876;SDS011;67251;50.844;7.978;2023-08-06T05:37:44;6.35;;;2.20;;
77876;SDS011;67251;50.844;7.978;2023-08-06T05:40:09;5.45;;;2.05;;
77876;SDS011;67251;50.844;7.978;2023-08-06T05:42:34;5.10;;;2.03;;
77876;SDS011;67251;50.844;7.978;2023-08-06T05:45:00;7.35;;;2.30;;
77876;SDS011;67251;50.844;7.978;2023-08-06T05:47:25;5.15;;;1.60;;
77876;SDS011;67251;50.844;7.978;2023-08-06T05:49:50;6.22;;;1.52;;
77876;SDS011;67251;50.844;7.978;2023-08-06T05:52:16;5.35;;;1.85;;
77876;SDS011;67251;50.844;7.978;2023-08-06T05:54:41;5.10;;;1.70;;
77876;SDS011;67251;50.844;7.978;2023-08-06T05:57:06;3.55;;;1.40;;
77876;SDS011;67251;50.844;7.978;2023-08-06T05:59:32;4.18;;;1.50;;
77876;SDS011;67251;50.844;7.978;2023-08-06T06:01:57;5.40;;;1.60;;
77876;SDS011;67251;50.844;7.978;2023-08-06T06:04:23;3.95;;;1.48;;
77876;SDS011;67251;50.844;7.978;2023-08-06T06:06:48;3.92;;;1.00;;
77876;SDS011;67251;50.844;7.978;2023-08-06T06:09:13;3.80;;;1.50;;
77876;SDS011;67251;50.844;7.978;2023-08-06T06:11:39;4.50;;;1.55;;
77876;SDS011;67251;50.844;7.978;2023-08-06T06:14:04;3.83;;;1.30;;
77876;SDS011;67251;50.844;7.978;2023-08-06T06:16:30;3.45;;;1.48;;
77876;SDS011;67251;50.844;7.978;2023-08-06T06:18:55;5.47;;;1.40;;
77876;SDS011;67251;50.844;7.978;2023-08-06T06:21:22;3.47;;;1.30;;
77876;SDS011;67251;50.844;7.978;2023-08-06T06:23:49;4.40;;;1.25;;
77876;SDS011;67251;50.844;7.978;2023-08-06T06:26:16;4.07;;;1.13;;
77876;SDS011;67251;50.844;7.978;2023-08-06T06:28:42;3.60;;;1.15;;
77876;SDS011;67251;50.844;7.978;2023-08-06T06:31:07;3.90;;;1.30;;
77876;SDS011;67251;50.844;7.978;2023-08-06T06:33:32;4.10;;;1.40;;
77876;SDS011;67251;50.844;7.978;2023-08-06T06:35:58;4.03;;;1.27;;
77876;SDS011;67251;50.844;7.978;2023-08-06T06:38:23;4.40;;;1.40;;
77876;SDS011;67251;50.844;7.978;2023-08-06T06:40:58;3.88;;;1.40;;
77876;SDS011;67251;50.844;7.978;2023-08-06T06:43:23;3.00;;;0.98;;
77876;SDS011;67251;50.844;7.978;2023-08-06T06:45:53;4.38;;;1.27;;
77876;SDS011;67251;50.844;7.978;2023-08-06T06:48:19;2.70;;;1.02;;
77876;SDS011;67251;50.844;7.978;2023-08-06T06:50:47;3.70;;;1.33;;
77876;SDS011;67251;50.844;7.978;2023-08-06T06:53:13;3.78;;;1.30;;
77876;SDS011;67251;50.844;7.978;2023-08-06T06:55:38;4.07;;;1.20;;
77876;SDS011;67251;50.844;7.978;2023-08-06T06:58:03;4.30;;;1.23;;
77876;SDS011;67251;50.844;7.978;2023-08-06T07:00:29;3.08;;;1.08;;
77876;SDS011;67251;50.844;7.978;2023-08-06T07:02:54;3.72;;;1.02;;
77876;SDS011;67251;50.844;7.978;2023-08-06T07:05:19;2.88;;;1.00;;
77876;SDS011;67251;50.844;7.978;2023-08-06T07:07:45;3.40;;;1.48;;
77876;SDS011;67251;50.844;7.978;2023-08-06T07:10:10;3.63;;;0.98;;
77876;SDS011;67251;50.844;7.978;2023-08-06T07:12:36;1.95;;;0.70;;
77876;SDS011;67251;50.844;7.978;2023-08-06T07:15:03;2.33;;;0.70;;
77876;SDS011;67251;50.844;7.978;2023-08-06T07:17:30;2.88;;;0.80;;
77876;SDS011;67251;50.844;7.978;2023-08-06T07:19:55;1.75;;;0.60;;
77876;SDS011;67251;50.844;7.978;2023-08-06T07:22:20;0.70;;;0.40;;
77876;SDS011;67251;50.844;7.978;2023-08-06T07:24:46;2.20;;;0.63;;
77876;SDS011;67251;50.844;7.978;2023-08-06T07:27:11;2.65;;;0.60;;
77876;SDS011;67251;50.844;7.978;2023-08-06T07:29:36;2.38;;;0.70;;
77876;SDS011;67251;50.844;7.978;2023-08-06T07:32:02;3.00;;;0.82;;
77876;SDS011;67251;50.844;7.978;2023-08-06T07:34:27;1.40;;;0.50;;
77876;SDS011;67251;50.844;7.978;2023-08-06T07:36:52;1.75;;;0.60;;
77876;SDS011;67251;50.844;7.978;2023-08-06T07:39:18;2.30;;;0.80;;
77876;SDS011;67251;50.844;7.978;2023-08-06T07:41:43;2.90;;;0.70;;
77876;SDS011;67251;50.844;7.978;2023-08-06T07:44:10;1.30;;;0.45;;
77876;SDS011;67251;50.844;7.978;2023-08-06T07:46:36;2.13;;;0.60;;
77876;SDS011;67251;50.844;7.978;2023-08-06T07:49:01;1.30;;;0.50;;
77876;SDS011;67251;50.844;7.978;2023-08-06T07:51:27;1.33;;;0.50;;
77876;SDS011;67251;50.844;7.978;2023-08-06T07:53:53;1.80;;;0.60;;
77876;SDS011;67251;50.844;7.978;2023-08-06T07:56:18;1.73;;;0.60;;
77876;SDS011;67251;50.844;7.978;2023-08-06T07:58:43;1.65;;;0.80;;
77876;SDS011;67251;50.844;7.978;2023-08-06T08:01:09;2.00;;;0.40;;
77876;SDS011;67251;50.844;7.978;2023-08-06T08:03:34;1.02;;;0.40;;
77876;SDS011;67251;50.844;7.978;2023-08-06T08:05:59;1.95;;;0.30;;
77876;SDS011;67251;50.844;7.978;2023-08-06T08:08:25;0.73;;;0.30;;
77876;SDS011;67251;50.844;7.978;2023-08-06T08:10:50;1.40;;;0.40;;
77876;SDS011;67251;50.844;7.978;2023-08-06T08:13:16;1.27;;;0.50;;
77876;SDS011;67251;50.844;7.978;2023-08-06T08:15:41;0.85;;;0.40;;
77876;SDS011;67251;50.844;7.978;2023-08-06T08:18:07;0.40;;;0.20;;
77876;SDS011;67251;50.844;7.978;2023-08-06T08:20:32;1.30;;;0.38;;
77876;SDS011;67251;50.844;7.978;2023-08-06T08:23:00;0.80;;;0.40;;
77876;SDS011;67251;50.844;7.978;2023-08-06T08:25:25;1.25;;;0.50;;
77876;SDS011;67251;50.844;7.978;2023-08-06T08:27:51;0.77;;;0.30;;
77876;SDS011;67251;50.844;7.978;2023-08-06T08:30:17;1.33;;;0.50;;
77876;SDS011;67251;50.844;7.978;2023-08-06T08:32:43;1.52;;;0.40;;
77876;SDS011;67251;50.844;7.978;2023-08-06T08:35:08;1.83;;;0.63;;
77876;SDS011;67251;50.844;7.978;2023-08-06T08:37:33;2.28;;;0.80;;
77876;SDS011;67251;50.844;7.978;2023-08-06T08:39:59;2.22;;;0.85;;
77876;SDS011;67251;50.844;7.978;2023-08-06T08:42:25;2.30;;;0.65;;
77876;SDS011;67251;50.844;7.978;2023-08-06T08:44:51;1.90;;;0.60;;
77876;SDS011;67251;50.844;7.978;2023-08-06T08:47:18;2.15;;;0.73;;
77876;SDS011;67251;50.844;7.978;2023-08-06T08:49:43;2.28;;;0.82;;
77876;SDS011;67251;50.844;7.978;2023-08-06T08:52:11;2.63;;;0.85;;
77876;SDS011;67251;50.844;7.978;2023-08-06T08:54:40;2.22;;;0.80;;
77876;SDS011;67251;50.844;7.978;2023-08-06T08:57:06;3.75;;;0.95;;
77876;SDS011;67251;50.844;7.978;2023-08-06T08:59:33;2.78;;;0.80;;
77876;SDS011;67251;50.844;7.978;2023-08-06T09:02:00;2.47;;;0.73;;
77876;SDS011;67251;50.844;7.978;2023-08-06T09:04:27;2.45;;;0.90;;
77876;SDS011;67251;50.844;7.978;2023-08-06T09:06:57;1.90;;;0.73;;
77876;SDS011;67251;50.844;7.978;2023-08-06T09:09:31;2.58;;;0.85;;
77876;SDS011;67251;50.844;7.978;2023-08-06T09:12:00;2.05;;;0.70;;
77876;SDS011;67251;50.844;7.978;2023-08-06T09:14:29;1.73;;;0.70;;
77876;SDS011;67251;50.844;7.978;2023-08-06T09:16:54;2.70;;;0.80;;
77876;SDS011;67251;50.844;7.978;2023-08-06T09:19:20;2.22;;;0.80;;
77876;SDS011;67251;50.844;7.978;2023-08-06T09:21:45;2.63;;;0.73;;
77876;SDS011;67251;50.844;7.978;2023-08-06T09:24:14;1.75;;;0.70;;
77876;SDS011;67251;50.844;7.978;2023-08-06T09:26:40;2.20;;;0.80;;
77876;SDS011;67251;50.844;7.978;2023-08-06T09:29:07;1.48;;;0.60;;
77876;SDS011;67251;50.844;7.978;2023-08-06T09:31:40;1.60;;;0.60;;
77876;SDS011;67251;50.844;7.978;2023-08-06T09:34:10;1.85;;;0.80;;
77876;SDS011;67251;50.844;7.978;2023-08-06T09:36:47;2.65;;;0.75;;
77876;SDS011;67251;50.844;7.978;2023-08-06T09:41:42;2.67;;;0.70;;
77876;SDS011;67251;50.844;7.978;2023-08-06T09:44:17;2.45;;;0.85;;
77876;SDS011;67251;50.844;7.978;2023-08-06T09:46:52;1.92;;;0.75;;
77876;SDS011;67251;50.844;7.978;2023-08-06T09:49:28;2.78;;;1.00;;
77876;SDS011;67251;50.844;7.978;2023-08-06T09:52:10;2.00;;;0.70;;
77876;SDS011;67251;50.844;7.978;2023-08-06T09:54:40;1.88;;;0.70;;
77876;SDS011;67251;50.844;7.978;2023-08-06T09:57:08;2.40;;;0.90;;
77876;SDS011;67251;50.844;7.978;2023-08-06T09:59:34;2.30;;;1.00;;
77876;SDS011;67251;50.844;7.978;2023-08-06T10:02:02;2.38;;;0.90;;
77876;SDS011;67251;50.844;7.978;2023-08-06T10:04:28;2.67;;;0.70;;
77876;SDS011;67251;50.844;7.978;2023-08-06T10:06:54;2.50;;;0.93;;
77876;SDS011;67251;50.844;7.978;2023-08-06T10:09:19;2.28;;;0.80;;
77876;SDS011;67251;50.844;7.978;2023-08-06T10:11:47;3.90;;;0.80;;
77876;SDS011;67251;50.844;7.978;2023-08-06T10:14:16;2.33;;;0.90;;
77876;SDS011;67251;50.844;7.978;2023-08-06T10:16:46;2.05;;;0.80;;
77876;SDS011;67251;50.844;7.978;2023-08-06T10:19:12;2.25;;;0.80;;
77876;SDS011;67251;50.844;7.978;2023-08-06T10:21:40;2.72;;;0.80;;
77876;SDS011;67251;50.844;7.978;2023-08-06T10:24:09;2.30;;;0.80;;
77876;SDS011;67251;50.844;7.978;2023-08-06T10:26:39;1.77;;;0.73;;
77876;SDS011;67251;50.844;7.978;2023-08-06T10:32:02;2.92;;;0.77;;
77876;SDS011;67251;50.844;7.978;2023-08-06T10:37:37;2.20;;;0.80;;
77876;SDS011;67251;50.844;7.978;2023-08-06T10:40:03;2.67;;;1.00;;
77876;SDS011;67251;50.844;7.978;2023-08-06T10:42:31;2.67;;;0.95;;
77876;SDS011;67251;50.844;7.978;2023-08-06T10:45:16;2.70;;;1.00;;
77876;SDS011;67251;50.844;7.978;2023-08-06T10:47:42;3.00;;;1.30;;
77876;SDS011;67251;50.844;7.978;2023-08-06T10:50:11;4.10;;;1.08;;
77876;SDS011;67251;50.844;7.978;2023-08-06T10:52:37;2.75;;;1.10;;
77876;SDS011;67251;50.844;7.978;2023-08-06T10:55:03;3.65;;;1.10;;
77876;SDS011;67251;50.844;7.978;2023-08-06T10:57:28;2.80;;;1.10;;
77876;SDS011;67251;50.844;7.978;2023-08-06T10:59:53;2.72;;;1.05;;
77876;SDS011;67251;50.844;7.978;2023-08-06T11:02:19;1.92;;;0.77;;
77876;SDS011;67251;50.844;7.978;2023-08-06T11:04:44;2.85;;;1.00;;
77876;SDS011;67251;50.844;7.978;2023-08-06T11:07:10;2.47;;;0.98;;
77876;SDS011;67251;50.844;7.978;2023-08-06T11:09:36;2.30;;;0.90;;
77876;SDS011;67251;50.844;7.978;2023-08-06T11:12:02;3.33;;;1.30;;
77876;SDS011;67251;50.844;7.978;2023-08-06T11:14:34;2.78;;;1.30;;
77876;SDS011;67251;50.844;7.978;2023-08-06T11:17:00;3.75;;;1.20;;
77876;SDS011;67251;50.844;7.978;2023-08-06T11:19:25;3.72;;;1.30;;
77876;SDS011;67251;50.844;7.978;2023-08-06T11:21:51;3.33;;;1.30;;
77876;SDS011;67251;50.844;7.978;2023-08-06T11:24:16;3.70;;;1.40;;
77876;SDS011;67251;50.844;7.978;2023-08-06T11:26:42;2.90;;;1.30;;
77876;SDS011;67251;50.844;7.978;2023-08-06T11:29:09;3.40;;;1.30;;
77876;SDS011;67251;50.844;7.978;2023-08-06T11:31:35;3.53;;;1.33;;
77876;SDS011;67251;50.844;7.978;2023-08-06T11:34:01;3.20;;;1.30;;
77876;SDS011;67251;50.844;7.978;2023-08-06T11:38:56;3.05;;;1.30;;
77876;SDS011;67251;50.844;7.978;2023-08-06T11:41:22;3.30;;;1.40;;
77876;SDS011;67251;50.844;7.978;2023-08-06T11:43:48;3.95;;;1.40;;
77876;SDS011;67251;50.844;7.978;2023-08-06T11:46:13;3.92;;;1.50;;
77876;SDS011;67251;50.844;7.978;2023-08-06T11:48:51;3.40;;;1.30;;
77876;SDS011;67251;50.844;7.978;2023-08-06T11:51:17;3.05;;;1.00;;
77876;SDS011;67251;50.844;7.978;2023-08-06T11:53:48;2.88;;;1.00;;
77876;SDS011;67251;50.844;7.978;2023-08-06T11:56:14;2.42;;;0.88;;
77876;SDS011;67251;50.844;7.978;2023-08-06T11:58:43;2.53;;;0.80;;
77876;SDS011;67251;50.844;7.978;2023-08-06T12:01:09;0.95;;;0.50;;
77876;SDS011;67251;50.844;7.978;2023-08-06T12:03:41;1.73;;;0.50;;
77876;SDS011;67251;50.844;7.978;2023-08-06T12:06:06;3.15;;;0.90;;
77876;SDS011;67251;50.844;7.978;2023-08-06T12:08:32;1.85;;;0.70;;
77876;SDS011;67251;50.844;7.978;2023-08-06T12:10:58;1.77;;;0.73;;
77876;SDS011;67251;50.844;7.978;2023-08-06T12:13:23;0.38;;;0.15;;
77876;SDS011;67251;50.844;7.978;2023-08-06T12:15:49;1.15;;;0.40;;
77876;SDS011;67251;50.844;7.978;2023-08-06T12:18:14;0.70;;;0.40;;
77876;SDS011;67251;50.844;7.978;2023-08-06T12:20:40;0.82;;;0.32;;
77876;SDS011;67251;50.844;7.978;2023-08-06T12:23:05;1.27;;;0.40;;
77876;SDS011;67251;50.844;7.978;2023-08-06T12:25:30;2.70;;;0.50;;
77876;SDS011;67251;50.844;7.978;2023-08-06T12:27:56;0.70;;;0.30;;
77876;SDS011;67251;50.844;7.978;2023-08-06T12:30:21;1.05;;;0.30;;
77876;SDS011;67251;50.844;7.978;2023-08-06T12:32:47;1.27;;;0.50;;
77876;SDS011;67251;50.844;7.978;2023-08-06T12:35:12;1.17;;;0.25;;
77876;SDS011;67251;50.844;7.978;2023-08-06T12:37:39;1.00;;;0.35;;
77876;SDS011;67251;50.844;7.978;2023-08-06T12:40:04;0.88;;;0.40;;
77876;SDS011;67251;50.844;7.978;2023-08-06T12:42:30;1.75;;;0.55;;
77876;SDS011;67251;50.844;7.978;2023-08-06T12:44:55;1.85;;;0.60;;
77876;SDS011;67251;50.844;7.978;2023-08-06T12:47:21;1.23;;;0.60;;
77876;SDS011;67251;50.844;7.978;2023-08-06T12:49:46;1.90;;;0.70;;
77876;SDS011;67251;50.844;7.978;2023-08-06T12:52:12;1.55;;;0.60;;
77876;SDS011;67251;50.844;7.978;2023-08-06T12:54:40;2.20;;;0.70;;
77876;SDS011;67251;50.844;7.978;2023-08-06T12:57:05;2.97;;;0.82;;
77876;SDS011;67251;50.844;7.978;2023-08-06T12:59:31;1.45;;;0.60;;
77876;SDS011;67251;50.844;7.978;2023-08-06T13:01:58;2.10;;;0.70;;
77876;SDS011;67251;50.844;7.978;2023-08-06T13:04:23;2.50;;;0.80;;
77876;SDS011;67251;50.844;7.978;2023-08-06T13:06:48;2.08;;;0.88;;
77876;SDS011;67251;50.844;7.978;2023-08-06T13:09:14;2.60;;;0.90;;
77876;SDS011;67251;50.844;7.978;2023-08-06T13:11:40;2.45;;;1.00;;
77876;SDS011;67251;50.844;7.978;2023-08-06T13:14:07;2.75;;;1.13;;
77876;SDS011;67251;50.844;7.978;2023-08-06T13:16:34;2.78;;;1.10;;
77876;SDS011;67251;50.844;7.978;2023-08-06T13:19:00;4.25;;;1.20;;
77876;SDS011;67251;50.844;7.978;2023-08-06T13:21:33;3.13;;;1.02;;
77876;SDS011;67251;50.844;7.978;2023-08-06T13:24:16;3.67;;;1.00;;
77876;SDS011;67251;50.844;7.978;2023-08-06T13:26:42;2.03;;;0.82;;
77876;SDS011;67251;50.844;7.978;2023-08-06T13:29:07;2.25;;;0.90;;
77876;SDS011;67251;50.844;7.978;2023-08-06T13:31:32;3.58;;;1.00;;
77876;SDS011;67251;50.844;7.978;2023-08-06T13:33:58;2.25;;;0.90;;
77876;SDS011;67251;50.844;7.978;2023-08-06T13:36:27;2.10;;;0.80;;
77876;SDS011;67251;50.844;7.978;2023-08-06T13:38:53;2.28;;;0.88;;
77876;SDS011;67251;50.844;7.978;2023-08-06T13:41:18;2.03;;;0.70;;
77876;SDS011;67251;50.844;7.978;2023-08-06T13:43:44;2.05;;;0.82;;
77876;SDS011;67251;50.844;7.978;2023-08-06T13:46:10;2.17;;;0.88;;
77876;SDS011;67251;50.844;7.978;2023-08-06T13:48:41;2.42;;;0.90;;
77876;SDS011;67251;50.844;7.978;2023-08-06T13:51:06;2.63;;;0.85;;
77876;SDS011;67251;50.844;7.978;2023-08-06T13:53:31;3.55;;;1.00;;
77876;SDS011;67251;50.844;7.978;2023-08-06T13:55:57;1.60;;;0.65;;
77876;SDS011;67251;50.844;7.978;2023-08-06T13:58:22;2.33;;;0.85;;
77876;SDS011;67251;50.844;7.978;2023-08-06T14:00:48;2.63;;;0.75;;
77876;SDS011;67251;50.844;7.978;2023-08-06T14:03:14;2.15;;;0.85;;
77876;SDS011;67251;50.844;7.978;2023-08-06T14:05:39;4.30;;;1.20;;
77876;SDS011;67251;50.844;7.978;2023-08-06T14:08:05;2.80;;;1.13;;
77876;SDS011;67251;50.844;7.978;2023-08-06T14:10:30;3.00;;;1.20;;
77876;SDS011;67251;50.844;7.978;2023-08-06T14:12:55;3.25;;;1.30;;
77876;SDS011;67251;50.844;7.978;2023-08-06T14:15:21;5.10;;;1.50;;
77876;SDS011;67251;50.844;7.978;2023-08-06T14:17:46;3.58;;;1.30;;
77876;SDS011;67251;50.844;7.978;2023-08-06T14:20:12;3.53;;;1.73;;
77876;SDS011;67251;50.844;7.978;2023-08-06T14:22:37;4.95;;;2.03;;
77876;SDS011;67251;50.844;7.978;2023-08-06T14:25:03;3.60;;;1.27;;
77876;SDS011;67251;50.844;7.978;2023-08-06T14:27:29;4.15;;;1.65;;
77876;SDS011;67251;50.844;7.978;2023-08-06T14:29:54;3.38;;;1.40;;
77876;SDS011;67251;50.844;7.978;2023-08-06T14:32:19;8.00;;;4.25;;
77876;SDS011;67251;50.844;7.978;2023-08-06T14:34:46;6.13;;;3.05;;
77876;SDS011;67251;50.844;7.978;2023-08-06T14:37:11;3.00;;;1.20;;
77876;SDS011;67251;50.844;7.978;2023-08-06T14:39:37;4.75;;;1.30;;
77876;SDS011;67251;50.844;7.978;2023-08-06T14:42:03;3.65;;;1.35;;
77876;SDS011;67251;50.844;7.978;2023-08-06T14:44:29;4.35;;;1.33;;
77876;SDS011;67251;50.844;7.978;2023-08-06T14:46:55;3.30;;;1.17;;
77876;SDS011;67251;50.844;7.978;2023-08-06T14:49:20;3.17;;;1.48;;
77876;SDS011;67251;50.844;7.978;2023-08-06T14:51:46;4.22;;;1.38;;
77876;SDS011;67251;50.844;7.978;2023-08-06T14:54:11;4.22;;;1.40;;
77876;SDS011;67251;50.844;7.978;2023-08-06T14:56:37;4.00;;;1.35;;
77876;SDS011;67251;50.844;7.978;2023-08-06T14:59:02;3.53;;;0.93;;
77876;SDS011;67251;50.844;7.978;2023-08-06T15:01:28;3.53;;;1.00;;
77876;SDS011;67251;50.844;7.978;2023-08-06T15:03:53;3.53;;;1.20;;
77876;SDS011;67251;50.844;7.978;2023-08-06T15:06:18;3.38;;;1.42;;